sensor_id;sensor_type;location;lat;lon;timestamp;pressure;altitude;pressure_sealevel;temperature;humidity
72486;BME280;60509;47.308;-122.428;2022-08-30T00:00:34;100408.96;;;32.21;9.08
72486;BME280;60509;47.308;-122.428;2022-08-30T00:02:59;100410.15;;;31.01;8.79
72486;BME280;60509;47.308;-122.428;2022-08-30T00:05:24;100407.48;;;33.27;8.59
72486;BME280;60509;47.308;-122.428;2022-08-30T00:07:48;100400.22;;;31.15;9.72
72486;BME280;60509;47.308;-122.428;2022-08-30T00:10:14;100403.57;;;32.09;8.84
72486;BME280;60509;47.308;-122.428;2022-08-30T00:12:39;100404.21;;;32.75;8.44
72486;BME280;60509;47.308;-122.428;2022-08-30T00:15:05;100403.30;;;32.01;8.93
72486;BME280;60509;47.308;-122.428;2022-08-30T00:17:29;100401.25;;;33.23;8.43
72486;BME280;60509;47.308;-122.428;2022-08-30T00:19:54;100399.30;;;31.41;8.60
72486;BME280;60509;47.308;-122.428;2022-08-30T00:22:19;100399.65;;;33.17;7.94
72486;BME280;60509;47.308;-122.428;2022-08-30T00:24:45;100400.55;;;33.39;8.15
72486;BME280;60509;47.308;-122.428;2022-08-30T00:27:11;100397.57;;;30.07;9.65
72486;BME280;60509;47.308;-122.428;2022-08-30T00:29:37;100393.93;;;31.30;8.87
72486;BME280;60509;47.308;-122.428;2022-08-30T00:32:03;100402.24;;;32.73;8.91
72486;BME280;60509;47.308;-122.428;2022-08-30T00:34:27;100400.23;;;32.01;8.74
72486;BME280;60509;47.308;-122.428;2022-08-30T00:36:52;100399.63;;;32.60;8.56
72486;BME280;60509;47.308;-122.428;2022-08-30T00:39:17;100397.15;;;33.70;7.71
72486;BME280;60509;47.308;-122.428;2022-08-30T00:41:42;100394.32;;;33.22;7.52
72486;BME280;60509;47.308;-122.428;2022-08-30T00:44:08;100392.80;;;33.30;7.56
72486;BME280;60509;47.308;-122.428;2022-08-30T00:46:33;100391.15;;;34.73;7.25
72486;BME280;60509;47.308;-122.428;2022-08-30T00:49:02;100388.07;;;33.57;7.14
72486;BME280;60509;47.308;-122.428;2022-08-30T00:51:23;100385.22;;;34.15;7.10
72486;BME280;60509;47.308;-122.428;2022-08-30T00:53:51;100384.92;;;32.64;7.42
72486;BME280;60509;47.308;-122.428;2022-08-30T00:56:14;100384.00;;;31.81;7.74
72486;BME280;60509;47.308;-122.428;2022-08-30T00:58:43;100377.75;;;33.57;7.01
72486;BME280;60509;47.308;-122.428;2022-08-30T01:01:04;100377.05;;;32.55;7.23
72486;BME280;60509;47.308;-122.428;2022-08-30T01:03:29;100374.26;;;32.62;7.22
72486;BME280;60509;47.308;-122.428;2022-08-30T01:05:54;100372.88;;;33.88;7.11
72486;BME280;60509;47.308;-122.428;2022-08-30T01:08:20;100367.54;;;34.60;6.93
72486;BME280;60509;47.308;-122.428;2022-08-30T01:10:44;100364.91;;;34.62;6.83
72486;BME280;60509;47.308;-122.428;2022-08-30T01:13:10;100360.62;;;34.92;6.65
72486;BME280;60509;47.308;-122.428;2022-08-30T01:15:35;100359.45;;;34.12;7.02
72486;BME280;60509;47.308;-122.428;2022-08-30T01:18:01;100361.34;;;32.19;7.93
72486;BME280;60509;47.308;-122.428;2022-08-30T01:20:30;100360.72;;;32.33;7.86
72486;BME280;60509;47.308;-122.428;2022-08-30T01:23:02;100355.63;;;34.34;7.44
72486;BME280;60509;47.308;-122.428;2022-08-30T01:25:18;100357.08;;;34.26;7.69
72486;BME280;60509;47.308;-122.428;2022-08-30T01:27:43;100354.87;;;30.98;8.73
72486;BME280;60509;47.308;-122.428;2022-08-30T01:30:06;100354.13;;;34.23;7.83
72486;BME280;60509;47.308;-122.428;2022-08-30T01:32:30;100355.04;;;31.87;8.60
72486;BME280;60509;47.308;-122.428;2022-08-30T01:34:56;100353.32;;;31.73;8.86
72486;BME280;60509;47.308;-122.428;2022-08-30T01:37:24;100355.83;;;31.23;8.69
72486;BME280;60509;47.308;-122.428;2022-08-30T01:39:46;100355.38;;;31.41;8.54
72486;BME280;60509;47.308;-122.428;2022-08-30T01:42:10;100349.93;;;33.23;8.20
72486;BME280;60509;47.308;-122.428;2022-08-30T01:44:35;100350.02;;;31.89;8.83
72486;BME280;60509;47.308;-122.428;2022-08-30T01:47:00;100346.38;;;32.25;8.44
72486;BME280;60509;47.308;-122.428;2022-08-30T01:49:25;100342.79;;;33.08;8.43
72486;BME280;60509;47.308;-122.428;2022-08-30T01:51:50;100346.12;;;31.29;9.15
72486;BME280;60509;47.308;-122.428;2022-08-30T01:54:16;100346.20;;;32.48;9.01
72486;BME280;60509;47.308;-122.428;2022-08-30T01:56:40;100344.09;;;31.15;9.16
72486;BME280;60509;47.308;-122.428;2022-08-30T01:59:06;100346.62;;;28.43;10.27
72486;BME280;60509;47.308;-122.428;2022-08-30T02:01:33;100342.12;;;30.34;9.95
72486;BME280;60509;47.308;-122.428;2022-08-30T02:03:56;100347.18;;;30.60;9.90
72486;BME280;60509;47.308;-122.428;2022-08-30T02:06:22;100343.04;;;30.89;10.01
72486;BME280;60509;47.308;-122.428;2022-08-30T02:08:46;100344.12;;;28.80;10.79
72486;BME280;60509;47.308;-122.428;2022-08-30T02:11:13;100347.12;;;28.57;11.23
72486;BME280;60509;47.308;-122.428;2022-08-30T02:13:38;100349.40;;;26.27;12.83
72486;BME280;60509;47.308;-122.428;2022-08-30T02:16:02;100347.75;;;23.19;14.96
72486;BME280;60509;47.308;-122.428;2022-08-30T02:18:27;100353.91;;;23.76;15.28
72486;BME280;60509;47.308;-122.428;2022-08-30T02:20:52;100350.35;;;21.17;17.12
72486;BME280;60509;47.308;-122.428;2022-08-30T02:23:18;100347.40;;;22.51;16.67
72486;BME280;60509;47.308;-122.428;2022-08-30T02:25:44;100353.84;;;21.17;18.40
72486;BME280;60509;47.308;-122.428;2022-08-30T02:28:09;100352.88;;;19.24;20.08
72486;BME280;60509;47.308;-122.428;2022-08-30T02:30:34;100359.22;;;18.37;20.47
72486;BME280;60509;47.308;-122.428;2022-08-30T02:33:00;100359.94;;;20.15;18.95
72486;BME280;60509;47.308;-122.428;2022-08-30T02:35:25;100365.80;;;20.01;19.63
72486;BME280;60509;47.308;-122.428;2022-08-30T02:37:51;100364.40;;;18.96;20.40
72486;BME280;60509;47.308;-122.428;2022-08-30T02:40:17;100363.08;;;19.52;20.04
72486;BME280;60509;47.308;-122.428;2022-08-30T02:42:43;100355.92;;;20.30;19.36
72486;BME280;60509;47.308;-122.428;2022-08-30T02:45:09;100361.00;;;18.47;20.58
72486;BME280;60509;47.308;-122.428;2022-08-30T02:47:34;100359.20;;;19.85;20.29
72486;BME280;60509;47.308;-122.428;2022-08-30T02:50:02;100365.72;;;18.19;21.41
72486;BME280;60509;47.308;-122.428;2022-08-30T02:52:25;100361.78;;;17.15;23.05
72486;BME280;60509;47.308;-122.428;2022-08-30T02:54:51;100363.94;;;15.60;24.61
72486;BME280;60509;47.308;-122.428;2022-08-30T02:57:16;100363.68;;;16.26;25.06
72486;BME280;60509;47.308;-122.428;2022-08-30T02:59:42;100368.24;;;16.35;25.39
72486;BME280;60509;47.308;-122.428;2022-08-30T03:02:08;100367.53;;;15.56;26.11
72486;BME280;60509;47.308;-122.428;2022-08-30T03:04:33;100370.10;;;15.05;26.67
72486;BME280;60509;47.308;-122.428;2022-08-30T03:06:59;100370.03;;;15.78;26.44
72486;BME280;60509;47.308;-122.428;2022-08-30T03:09:25;100379.05;;;14.12;27.78
72486;BME280;60509;47.308;-122.428;2022-08-30T03:11:50;100373.92;;;15.24;26.87
72486;BME280;60509;47.308;-122.428;2022-08-30T03:14:16;100374.46;;;15.33;26.89
72486;BME280;60509;47.308;-122.428;2022-08-30T03:16:42;100378.27;;;13.28;28.78
72486;BME280;60509;47.308;-122.428;2022-08-30T03:19:07;100380.87;;;13.95;28.29
72486;BME280;60509;47.308;-122.428;2022-08-30T03:21:34;100382.98;;;14.50;28.49
72486;BME280;60509;47.308;-122.428;2022-08-30T03:23:58;100383.54;;;14.45;28.59
72486;BME280;60509;47.308;-122.428;2022-08-30T03:26:24;100383.90;;;12.98;29.57
72486;BME280;60509;47.308;-122.428;2022-08-30T03:28:50;100384.82;;;12.31;30.60
72486;BME280;60509;47.308;-122.428;2022-08-30T03:31:16;100388.71;;;13.06;30.20
72486;BME280;60509;47.308;-122.428;2022-08-30T03:33:41;100390.21;;;13.65;29.61
72486;BME280;60509;47.308;-122.428;2022-08-30T03:36:08;100393.47;;;13.87;29.71
72486;BME280;60509;47.308;-122.428;2022-08-30T03:38:33;100399.01;;;13.35;30.06
72486;BME280;60509;47.308;-122.428;2022-08-30T03:40:58;100404.31;;;13.70;30.13
72486;BME280;60509;47.308;-122.428;2022-08-30T03:43:24;100408.44;;;12.88;30.74
72486;BME280;60509;47.308;-122.428;2022-08-30T03:45:50;100409.54;;;13.11;30.67
72486;BME280;60509;47.308;-122.428;2022-08-30T03:48:16;100407.39;;;13.48;30.59
72486;BME280;60509;47.308;-122.428;2022-08-30T03:50:41;100407.38;;;12.96;30.78
72486;BME280;60509;47.308;-122.428;2022-08-30T03:53:07;100409.18;;;13.39;31.28
72486;BME280;60509;47.308;-122.428;2022-08-30T03:55:33;100410.72;;;12.48;32.35
72486;BME280;60509;47.308;-122.428;2022-08-30T03:57:58;100413.92;;;13.58;31.31
72486;BME280;60509;47.308;-122.428;2022-08-30T04:00:25;100417.30;;;12.88;32.04
72486;BME280;60509;47.308;-122.428;2022-08-30T04:02:50;100420.20;;;11.70;32.94
72486;BME280;60509;47.308;-122.428;2022-08-30T04:05:16;100420.68;;;12.54;32.22
72486;BME280;60509;47.308;-122.428;2022-08-30T04:07:42;100418.61;;;12.45;32.21
72486;BME280;60509;47.308;-122.428;2022-08-30T04:10:09;100418.99;;;12.51;32.56
72486;BME280;60509;47.308;-122.428;2022-08-30T04:12:33;100422.55;;;12.55;32.84
72486;BME280;60509;47.308;-122.428;2022-08-30T04:14:59;100420.41;;;11.31;34.13
72486;BME280;60509;47.308;-122.428;2022-08-30T04:17:25;100420.90;;;12.83;32.60
72486;BME280;60509;47.308;-122.428;2022-08-30T04:19:50;100420.67;;;12.31;33.23
72486;BME280;60509;47.308;-122.428;2022-08-30T04:22:16;100421.78;;;11.32;33.97
72486;BME280;60509;47.308;-122.428;2022-08-30T04:24:42;100423.09;;;11.44;33.97
72486;BME280;60509;47.308;-122.428;2022-08-30T04:27:08;100422.33;;;11.84;33.58
72486;BME280;60509;47.308;-122.428;2022-08-30T04:29:34;100420.83;;;12.08;33.49
72486;BME280;60509;47.308;-122.428;2022-08-30T04:31:59;100420.21;;;12.51;33.25
72486;BME280;60509;47.308;-122.428;2022-08-30T04:34:25;100417.32;;;11.28;34.19
72486;BME280;60509;47.308;-122.428;2022-08-30T04:36:51;100420.44;;;11.74;33.93
72486;BME280;60509;47.308;-122.428;2022-08-30T04:39:17;100422.70;;;11.97;33.62
72486;BME280;60509;47.308;-122.428;2022-08-30T04:41:42;100422.20;;;11.64;33.59
72486;BME280;60509;47.308;-122.428;2022-08-30T04:44:08;100425.40;;;12.12;33.08
72486;BME280;60509;47.308;-122.428;2022-08-30T04:46:36;100427.67;;;12.25;33.07
72486;BME280;60509;47.308;-122.428;2022-08-30T04:49:00;100426.79;;;12.09;32.99
72486;BME280;60509;47.308;-122.428;2022-08-30T04:51:25;100432.43;;;11.87;33.25
72486;BME280;60509;47.308;-122.428;2022-08-30T04:53:51;100434.90;;;11.45;33.80
72486;BME280;60509;47.308;-122.428;2022-08-30T04:56:20;100431.12;;;11.52;33.63
72486;BME280;60509;47.308;-122.428;2022-08-30T04:58:43;100431.15;;;11.35;33.81
72486;BME280;60509;47.308;-122.428;2022-08-30T05:01:12;100433.16;;;11.63;33.77
72486;BME280;60509;47.308;-122.428;2022-08-30T05:03:34;100435.67;;;11.84;33.40
72486;BME280;60509;47.308;-122.428;2022-08-30T05:06:00;100436.47;;;11.33;33.94
72486;BME280;60509;47.308;-122.428;2022-08-30T05:08:26;100435.37;;;11.57;33.75
72486;BME280;60509;47.308;-122.428;2022-08-30T05:10:52;100433.30;;;12.29;33.81
72486;BME280;60509;47.308;-122.428;2022-08-30T05:13:19;100431.63;;;11.95;33.79
72486;BME280;60509;47.308;-122.428;2022-08-30T05:15:44;100435.97;;;11.13;34.73
72486;BME280;60509;47.308;-122.428;2022-08-30T05:18:10;100432.95;;;11.41;34.10
72486;BME280;60509;47.308;-122.428;2022-08-30T05:20:36;100432.45;;;12.02;33.56
72486;BME280;60509;47.308;-122.428;2022-08-30T05:23:01;100436.14;;;11.79;33.80
72486;BME280;60509;47.308;-122.428;2022-08-30T05:25:28;100431.28;;;12.30;33.76
72486;BME280;60509;47.308;-122.428;2022-08-30T05:27:53;100434.02;;;11.17;34.44
72486;BME280;60509;47.308;-122.428;2022-08-30T05:30:19;100429.89;;;11.31;34.74
72486;BME280;60509;47.308;-122.428;2022-08-30T05:32:44;100432.46;;;11.97;33.85
72486;BME280;60509;47.308;-122.428;2022-08-30T05:35:13;100429.25;;;11.94;34.08
72486;BME280;60509;47.308;-122.428;2022-08-30T05:37:36;100433.01;;;11.22;34.46
72486;BME280;60509;47.308;-122.428;2022-08-30T05:40:04;100432.57;;;11.51;34.05
72486;BME280;60509;47.308;-122.428;2022-08-30T05:42:27;100436.79;;;10.97;34.58
72486;BME280;60509;47.308;-122.428;2022-08-30T05:44:53;100439.98;;;12.37;33.33
72486;BME280;60509;47.308;-122.428;2022-08-30T05:47:19;100441.23;;;11.52;33.74
72486;BME280;60509;47.308;-122.428;2022-08-30T05:49:45;100442.16;;;12.08;33.49
72486;BME280;60509;47.308;-122.428;2022-08-30T05:52:10;100446.39;;;11.90;33.58
72486;BME280;60509;47.308;-122.428;2022-08-30T05:54:36;100446.36;;;11.65;33.63
72486;BME280;60509;47.308;-122.428;2022-08-30T05:57:02;100448.37;;;12.19;33.68
72486;BME280;60509;47.308;-122.428;2022-08-30T05:59:28;100447.60;;;11.83;33.97
72486;BME280;60509;47.308;-122.428;2022-08-30T06:01:56;100450.71;;;10.44;35.23
72486;BME280;60509;47.308;-122.428;2022-08-30T06:04:19;100446.99;;;11.59;33.94
72486;BME280;60509;47.308;-122.428;2022-08-30T06:06:45;100446.07;;;11.95;33.94
72486;BME280;60509;47.308;-122.428;2022-08-30T06:09:13;100448.41;;;10.76;34.60
72486;BME280;60509;47.308;-122.428;2022-08-30T06:11:37;100452.07;;;11.47;34.10
72486;BME280;60509;47.308;-122.428;2022-08-30T06:14:04;100446.55;;;11.55;33.67
72486;BME280;60509;47.308;-122.428;2022-08-30T06:16:29;100449.79;;;12.11;33.06
72486;BME280;60509;47.308;-122.428;2022-08-30T06:18:56;100451.57;;;11.19;33.78
72486;BME280;60509;47.308;-122.428;2022-08-30T06:21:24;100450.49;;;12.51;32.81
72486;BME280;60509;47.308;-122.428;2022-08-30T06:23:46;100448.11;;;12.07;32.81
72486;BME280;60509;47.308;-122.428;2022-08-30T06:26:12;100448.52;;;12.11;33.24
72486;BME280;60509;47.308;-122.428;2022-08-30T06:28:38;100450.98;;;12.06;32.95
72486;BME280;60509;47.308;-122.428;2022-08-30T06:31:05;100447.27;;;11.94;33.14
72486;BME280;60509;47.308;-122.428;2022-08-30T06:33:29;100444.61;;;12.32;32.45
72486;BME280;60509;47.308;-122.428;2022-08-30T06:35:56;100445.19;;;12.03;33.54
72486;BME280;60509;47.308;-122.428;2022-08-30T06:38:21;100444.13;;;12.33;33.38
72486;BME280;60509;47.308;-122.428;2022-08-30T06:40:47;100449.58;;;12.57;32.87
72486;BME280;60509;47.308;-122.428;2022-08-30T06:43:12;100450.85;;;12.28;32.99
72486;BME280;60509;47.308;-122.428;2022-08-30T06:45:38;100454.85;;;11.12;34.17
72486;BME280;60509;47.308;-122.428;2022-08-30T06:48:04;100450.78;;;12.29;33.03
72486;BME280;60509;47.308;-122.428;2022-08-30T06:50:30;100448.03;;;11.90;33.58
72486;BME280;60509;47.308;-122.428;2022-08-30T06:52:56;100450.87;;;10.55;34.59
72486;BME280;60509;47.308;-122.428;2022-08-30T06:55:22;100449.40;;;10.99;35.00
72486;BME280;60509;47.308;-122.428;2022-08-30T06:57:47;100454.83;;;10.84;35.24
72486;BME280;60509;47.308;-122.428;2022-08-30T07:00:15;100457.03;;;10.81;34.68
72486;BME280;60509;47.308;-122.428;2022-08-30T07:02:40;100458.03;;;11.50;33.97
72486;BME280;60509;47.308;-122.428;2022-08-30T07:05:06;100460.44;;;11.16;34.09
72486;BME280;60509;47.308;-122.428;2022-08-30T07:07:31;100458.92;;;11.52;33.97
72486;BME280;60509;47.308;-122.428;2022-08-30T07:09:57;100457.01;;;11.99;34.38
72486;BME280;60509;47.308;-122.428;2022-08-30T07:12:22;100461.12;;;11.33;34.64
72486;BME280;60509;47.308;-122.428;2022-08-30T07:14:48;100463.06;;;11.36;34.22
72486;BME280;60509;47.308;-122.428;2022-08-30T07:17:14;100467.47;;;11.62;34.06
72486;BME280;60509;47.308;-122.428;2022-08-30T07:19:40;100468.07;;;11.50;33.93
72486;BME280;60509;47.308;-122.428;2022-08-30T07:22:06;100468.53;;;11.74;34.15
72486;BME280;60509;47.308;-122.428;2022-08-30T07:24:31;100469.56;;;11.37;34.72
72486;BME280;60509;47.308;-122.428;2022-08-30T07:26:57;100471.50;;;11.47;34.83
72486;BME280;60509;47.308;-122.428;2022-08-30T07:29:23;100473.46;;;10.94;35.30
72486;BME280;60509;47.308;-122.428;2022-08-30T07:31:49;100475.69;;;10.88;35.44
72486;BME280;60509;47.308;-122.428;2022-08-30T07:34:15;100474.14;;;10.16;36.24
72486;BME280;60509;47.308;-122.428;2022-08-30T07:36:41;100474.54;;;10.97;35.91
72486;BME280;60509;47.308;-122.428;2022-08-30T07:39:11;100473.91;;;10.11;36.47
72486;BME280;60509;47.308;-122.428;2022-08-30T07:41:34;100472.97;;;11.28;35.85
72486;BME280;60509;47.308;-122.428;2022-08-30T07:43:58;100480.41;;;10.45;36.60
72486;BME280;60509;47.308;-122.428;2022-08-30T07:46:25;100484.65;;;10.27;36.37
72486;BME280;60509;47.308;-122.428;2022-08-30T07:48:50;100485.11;;;10.71;36.71
72486;BME280;60509;47.308;-122.428;2022-08-30T07:51:19;100484.66;;;10.47;36.96
72486;BME280;60509;47.308;-122.428;2022-08-30T07:53:42;100487.51;;;9.97;37.86
72486;BME280;60509;47.308;-122.428;2022-08-30T07:56:08;100486.95;;;10.12;37.64
72486;BME280;60509;47.308;-122.428;2022-08-30T07:58:34;100484.89;;;8.77;38.91
72486;BME280;60509;47.308;-122.428;2022-08-30T08:01:00;100485.74;;;9.32;38.29
72486;BME280;60509;47.308;-122.428;2022-08-30T08:03:25;100478.66;;;10.70;36.84
72486;BME280;60509;47.308;-122.428;2022-08-30T08:05:51;100480.42;;;11.03;36.22
72486;BME280;60509;47.308;-122.428;2022-08-30T08:08:17;100481.99;;;10.36;37.27
72486;BME280;60509;47.308;-122.428;2022-08-30T08:10:43;100479.61;;;10.48;36.73
72486;BME280;60509;47.308;-122.428;2022-08-30T08:13:10;100478.77;;;10.76;36.79
72486;BME280;60509;47.308;-122.428;2022-08-30T08:15:35;100480.62;;;10.40;36.84
72486;BME280;60509;47.308;-122.428;2022-08-30T08:18:01;100479.37;;;10.19;37.02
72486;BME280;60509;47.308;-122.428;2022-08-30T08:20:27;100486.70;;;10.44;37.10
72486;BME280;60509;47.308;-122.428;2022-08-30T08:22:52;100489.96;;;9.73;37.36
72486;BME280;60509;47.308;-122.428;2022-08-30T08:25:18;100493.18;;;9.49;37.72
72486;BME280;60509;47.308;-122.428;2022-08-30T08:27:46;100488.82;;;10.94;36.65
72486;BME280;60509;47.308;-122.428;2022-08-30T08:30:10;100490.21;;;10.57;36.51
72486;BME280;60509;47.308;-122.428;2022-08-30T08:32:36;100486.64;;;10.46;36.40
72486;BME280;60509;47.308;-122.428;2022-08-30T08:35:02;100488.54;;;10.23;36.96
72486;BME280;60509;47.308;-122.428;2022-08-30T08:37:27;100485.06;;;10.77;36.98
72486;BME280;60509;47.308;-122.428;2022-08-30T08:39:53;100481.33;;;10.28;37.40
72486;BME280;60509;47.308;-122.428;2022-08-30T08:42:26;100475.19;;;10.73;37.13
72486;BME280;60509;47.308;-122.428;2022-08-30T08:44:52;100473.06;;;10.34;36.81
72486;BME280;60509;47.308;-122.428;2022-08-30T08:47:14;100471.61;;;10.11;36.73
72486;BME280;60509;47.308;-122.428;2022-08-30T08:49:39;100469.78;;;9.79;37.81
72486;BME280;60509;47.308;-122.428;2022-08-30T08:52:04;100470.18;;;9.74;37.07
72486;BME280;60509;47.308;-122.428;2022-08-30T08:54:35;100472.56;;;10.24;37.14
72486;BME280;60509;47.308;-122.428;2022-08-30T08:56:55;100471.89;;;9.26;38.53
72486;BME280;60509;47.308;-122.428;2022-08-30T08:59:21;100470.30;;;10.17;37.34
72486;BME280;60509;47.308;-122.428;2022-08-30T09:01:47;100469.24;;;10.53;36.45
72486;BME280;60509;47.308;-122.428;2022-08-30T09:04:16;100470.19;;;10.56;36.31
72486;BME280;60509;47.308;-122.428;2022-08-30T09:06:49;100469.07;;;10.28;36.40
72486;BME280;60509;47.308;-122.428;2022-08-30T09:09:04;100473.52;;;9.95;36.73
72486;BME280;60509;47.308;-122.428;2022-08-30T09:11:33;100469.48;;;10.74;36.16
72486;BME280;60509;47.308;-122.428;2022-08-30T09:13:56;100476.98;;;10.04;36.78
72486;BME280;60509;47.308;-122.428;2022-08-30T09:16:59;100477.01;;;9.64;37.55
72486;BME280;60509;47.308;-122.428;2022-08-30T09:18:48;100478.15;;;10.40;36.63
72486;BME280;60509;47.308;-122.428;2022-08-30T09:21:19;100479.15;;;9.63;37.43
72486;BME280;60509;47.308;-122.428;2022-08-30T09:23:48;100477.59;;;8.56;39.05
72486;BME280;60509;47.308;-122.428;2022-08-30T09:26:08;100479.47;;;7.72;40.21
72486;BME280;60509;47.308;-122.428;2022-08-30T09:28:33;100483.73;;;9.46;38.18
72486;BME280;60509;47.308;-122.428;2022-08-30T09:31:05;100483.76;;;9.59;38.07
72486;BME280;60509;47.308;-122.428;2022-08-30T09:33:23;100488.59;;;9.14;38.82
72486;BME280;60509;47.308;-122.428;2022-08-30T09:35:50;100486.26;;;9.57;38.33
72486;BME280;60509;47.308;-122.428;2022-08-30T09:38:19;100491.76;;;10.56;37.19
72486;BME280;60509;47.308;-122.428;2022-08-30T09:40:44;100491.19;;;9.77;37.81
72486;BME280;60509;47.308;-122.428;2022-08-30T09:43:10;100492.37;;;9.88;37.80
72486;BME280;60509;47.308;-122.428;2022-08-30T09:45:36;100490.22;;;9.10;38.96
72486;BME280;60509;47.308;-122.428;2022-08-30T09:47:59;100485.73;;;10.25;37.42
72486;BME280;60509;47.308;-122.428;2022-08-30T09:50:34;100485.32;;;9.37;38.72
72486;BME280;60509;47.308;-122.428;2022-08-30T09:52:59;100483.82;;;9.93;37.90
72486;BME280;60509;47.308;-122.428;2022-08-30T09:55:31;100486.61;;;10.34;37.54
72486;BME280;60509;47.308;-122.428;2022-08-30T09:57:50;100486.81;;;9.57;38.28
72486;BME280;60509;47.308;-122.428;2022-08-30T10:00:14;100488.82;;;9.89;37.67
72486;BME280;60509;47.308;-122.428;2022-08-30T10:02:53;100492.43;;;8.48;39.44
72486;BME280;60509;47.308;-122.428;2022-08-30T10:05:07;100495.26;;;9.63;38.54
72486;BME280;60509;47.308;-122.428;2022-08-30T10:07:31;100492.42;;;8.05;39.86
72486;BME280;60509;47.308;-122.428;2022-08-30T10:10:02;100494.59;;;9.63;38.28
72486;BME280;60509;47.308;-122.428;2022-08-30T10:12:26;100497.40;;;8.65;39.36
72486;BME280;60509;47.308;-122.428;2022-08-30T10:14:52;100496.50;;;9.80;38.14
72486;BME280;60509;47.308;-122.428;2022-08-30T10:17:18;100498.93;;;8.73;39.17
72486;BME280;60509;47.308;-122.428;2022-08-30T10:19:47;100499.25;;;9.73;38.02
72486;BME280;60509;47.308;-122.428;2022-08-30T10:22:05;100501.76;;;9.75;38.01
72486;BME280;60509;47.308;-122.428;2022-08-30T10:24:33;100501.55;;;8.81;39.17
72486;BME280;60509;47.308;-122.428;2022-08-30T10:26:59;100500.72;;;9.43;38.91
72486;BME280;60509;47.308;-122.428;2022-08-30T10:29:24;100497.58;;;9.07;38.96
72486;BME280;60509;47.308;-122.428;2022-08-30T10:31:49;100500.56;;;9.49;38.40
72486;BME280;60509;47.308;-122.428;2022-08-30T10:34:15;100502.41;;;9.09;38.83
72486;BME280;60509;47.308;-122.428;2022-08-30T10:36:48;100503.88;;;9.07;38.77
72486;BME280;60509;47.308;-122.428;2022-08-30T10:39:06;100505.19;;;9.47;38.37
72486;BME280;60509;47.308;-122.428;2022-08-30T10:41:35;100508.42;;;8.76;39.32
72486;BME280;60509;47.308;-122.428;2022-08-30T10:44:00;100506.36;;;8.82;39.35
72486;BME280;60509;47.308;-122.428;2022-08-30T10:46:28;100505.85;;;8.22;40.20
72486;BME280;60509;47.308;-122.428;2022-08-30T10:48:48;100506.86;;;9.61;38.44
72486;BME280;60509;47.308;-122.428;2022-08-30T10:51:19;100503.25;;;9.50;38.65
72486;BME280;60509;47.308;-122.428;2022-08-30T10:53:44;100502.06;;;9.02;39.10
72486;BME280;60509;47.308;-122.428;2022-08-30T10:56:08;100501.57;;;9.60;38.18
72486;BME280;60509;47.308;-122.428;2022-08-30T10:58:32;100499.22;;;9.73;38.02
72486;BME280;60509;47.308;-122.428;2022-08-30T11:01:09;100504.53;;;9.36;38.64
72486;BME280;60509;47.308;-122.428;2022-08-30T11:03:51;100501.65;;;10.06;38.14
72486;BME280;60509;47.308;-122.428;2022-08-30T11:06:26;100498.73;;;9.75;38.57
72486;BME280;60509;47.308;-122.428;2022-08-30T11:08:24;100496.62;;;9.46;38.62
72486;BME280;60509;47.308;-122.428;2022-08-30T11:10:49;100492.47;;;9.88;38.41
72486;BME280;60509;47.308;-122.428;2022-08-30T11:13:09;100491.86;;;9.30;38.87
72486;BME280;60509;47.308;-122.428;2022-08-30T11:15:36;100489.77;;;8.91;39.32
72486;BME280;60509;47.308;-122.428;2022-08-30T11:18:02;100487.00;;;8.83;39.35
72486;BME280;60509;47.308;-122.428;2022-08-30T11:20:44;100485.37;;;8.34;40.24
72486;BME280;60509;47.308;-122.428;2022-08-30T11:23:25;100484.32;;;8.91;40.21
72486;BME280;60509;47.308;-122.428;2022-08-30T11:25:48;100484.43;;;8.54;40.84
72486;BME280;60509;47.308;-122.428;2022-08-30T11:27:47;100478.63;;;8.32;41.17
72486;BME280;60509;47.308;-122.428;2022-08-30T11:31:34;100478.50;;;8.58;40.64
72486;BME280;60509;47.308;-122.428;2022-08-30T11:33:04;100472.92;;;8.82;40.75
72486;BME280;60509;47.308;-122.428;2022-08-30T11:35:39;100472.17;;;7.81;41.74
72486;BME280;60509;47.308;-122.428;2022-08-30T11:37:53;100475.68;;;8.95;40.77
72486;BME280;60509;47.308;-122.428;2022-08-30T11:41:07;100480.43;;;9.21;40.16
72486;BME280;60509;47.308;-122.428;2022-08-30T11:42:47;100486.04;;;9.23;40.41
72486;BME280;60509;47.308;-122.428;2022-08-30T11:46:18;100490.05;;;8.73;40.15
72486;BME280;60509;47.308;-122.428;2022-08-30T11:47:39;100492.09;;;8.60;40.91
72486;BME280;60509;47.308;-122.428;2022-08-30T11:50:11;100491.31;;;8.35;41.36
72486;BME280;60509;47.308;-122.428;2022-08-30T11:52:38;100496.01;;;9.51;39.94
72486;BME280;60509;47.308;-122.428;2022-08-30T11:55:11;100497.68;;;9.10;40.10
72486;BME280;60509;47.308;-122.428;2022-08-30T11:57:29;100495.49;;;9.40;39.99
72486;BME280;60509;47.308;-122.428;2022-08-30T11:59:56;100495.65;;;9.78;39.37
72486;BME280;60509;47.308;-122.428;2022-08-30T12:02:43;100491.90;;;9.10;40.39
72486;BME280;60509;47.308;-122.428;2022-08-30T12:04:44;100489.01;;;9.04;40.18
72486;BME280;60509;47.308;-122.428;2022-08-30T12:07:06;100488.60;;;9.57;39.04
72486;BME280;60509;47.308;-122.428;2022-08-30T12:10:21;100491.61;;;8.99;40.09
72486;BME280;60509;47.308;-122.428;2022-08-30T12:12:52;100495.39;;;8.82;40.19
72486;BME280;60509;47.308;-122.428;2022-08-30T12:14:59;100498.96;;;8.14;41.14
72486;BME280;60509;47.308;-122.428;2022-08-30T12:17:32;100505.23;;;9.39;40.07